Airfield :
LOGIN :

Register | Disclaimer

   EN    FR    IT 

 










Legend :    VFR   Marginal VFR   IFR   Intensive IFR   Very Intensive IFR
Visi :
Ceiling :
>= 8 km
>= 3000ft
5 to 8 km
1000 to 3000 ft
1500m to 5 km
500 to 1000 ft
800 to 1500m
200 to 500 ft
< 800m
< 200 ft
Symbols :   Thunderstorms  Fog  Heavy snow  Heavy precipitations  Wind > 20 kt
SIGMETs :     Misc.  Thunderstorms  Icing  Turbulence  Mountain Waves  Volcanic Ashes







- Airport Elevation : 78 ft
- IATA code : LED


ULLI - Pulkovo

CURRENT METAR :
  • 160500Z 18002MPS CAVOK 07/04 Q1018 R88/090060 NOSIG

EXPIRED METARs :
  • 160430Z 19002MPS CAVOK 07/04 Q1018 R28L/090060 NOSIG
  • 160400Z VRB01MPS CAVOK 07/04 Q1018 R28L/090060 NOSIG
  • 160330Z VRB01MPS CAVOK 07/05 Q1018 R28L/090060 NOSIG
  • 160300Z VRB01MPS CAVOK 07/04 Q1018 R28L/090060 NOSIG
  • 160230Z 22002MPS CAVOK 09/05 Q1018 R28L/090060 NOSIG

TAF TAF ULLI
Valid from the 16 at 03:00 until the 17 at 03:00 UTC


160158Z 1603/1703 20003MPS CAVOK
TEMPO 1603/1606 1000 BCFG BR SCT002
BECMG 1610/1612 24005G10MPS BKN015
TEMPO 1612/1703 20006G13MPS 3100 -SHRA BR SCT011 BKN016CB
No reported NOTAMs for that airfield.



MET'MAP, your aeronautical weather chart ! - Copyright ORBIFLY December 2007 - Disclaimer

ORBIFLY MET'MAP TEAM :

Programming & Development : Alexandra Zaïnal
Concept & Development : Baudouin d'Aumeries
Co-Development & Prog : Marc-Olivier Méhu
Technical & hardware support : Manuel Goepfert

Contact : metmap@orbifly.com




SOURCES & CREDITS :

   NOAA